sensor_id;sensor_type;location;lat;lon;timestamp;pressure;altitude;pressure_sealevel;temperature;humidity
75172;BME280;63750;52.418;20.742;2023-06-22T00:00:05;100734.59;;;26.57;58.41
75172;BME280;63750;52.418;20.742;2023-06-22T00:02:33;100735.62;;;26.69;58.13
75172;BME280;63750;52.418;20.742;2023-06-22T00:05:01;100735.16;;;26.77;57.84
75172;BME280;63750;52.418;20.742;2023-06-22T00:07:30;100728.76;;;26.79;57.66
75172;BME280;63750;52.418;20.742;2023-06-22T00:09:58;100724.85;;;26.75;57.63
75172;BME280;63750;52.418;20.742;2023-06-22T00:12:26;100726.50;;;26.71;57.79
75172;BME280;63750;52.418;20.742;2023-06-22T00:14:54;100725.14;;;26.66;58.19
75172;BME280;63750;52.418;20.742;2023-06-22T00:17:22;100719.98;;;26.63;58.47
75172;BME280;63750;52.418;20.742;2023-06-22T00:19:50;100725.76;;;26.61;58.48
75172;BME280;63750;52.418;20.742;2023-06-22T00:22:18;100724.69;;;26.55;58.31
75172;BME280;63750;52.418;20.742;2023-06-22T00:24:46;100724.29;;;26.49;58.60
75172;BME280;63750;52.418;20.742;2023-06-22T00:27:14;100718.04;;;26.45;58.55
75172;BME280;63750;52.418;20.742;2023-06-22T00:29:42;100715.02;;;26.40;58.51
75172;BME280;63750;52.418;20.742;2023-06-22T00:32:10;100715.50;;;26.36;58.43
75172;BME280;63750;52.418;20.742;2023-06-22T00:34:38;100710.83;;;26.30;58.54
75172;BME280;63750;52.418;20.742;2023-06-22T00:37:07;100708.77;;;26.21;58.67
75172;BME280;63750;52.418;20.742;2023-06-22T00:39:35;100710.73;;;26.15;58.71
75172;BME280;63750;52.418;20.742;2023-06-22T00:42:03;100706.02;;;26.08;58.93
75172;BME280;63750;52.418;20.742;2023-06-22T00:44:32;100700.91;;;26.05;58.94
75172;BME280;63750;52.418;20.742;2023-06-22T00:47:00;100703.14;;;26.03;59.14
75172;BME280;63750;52.418;20.742;2023-06-22T00:49:28;100703.55;;;26.00;59.07
75172;BME280;63750;52.418;20.742;2023-06-22T00:51:57;100705.66;;;25.97;59.11
75172;BME280;63750;52.418;20.742;2023-06-22T00:54:25;100701.63;;;25.98;59.19
75172;BME280;63750;52.418;20.742;2023-06-22T00:56:54;100693.25;;;25.98;59.17
75172;BME280;63750;52.418;20.742;2023-06-22T00:59:22;100697.05;;;25.98;59.32
75172;BME280;63750;52.418;20.742;2023-06-22T01:01:51;100689.64;;;26.00;59.38
75172;BME280;63750;52.418;20.742;2023-06-22T01:04:19;100685.65;;;26.01;59.23
75172;BME280;63750;52.418;20.742;2023-06-22T01:06:54;100687.34;;;26.03;59.26
75172;BME280;63750;52.418;20.742;2023-06-22T01:09:26;100685.86;;;26.05;59.13
75172;BME280;63750;52.418;20.742;2023-06-22T01:12:00;100681.20;;;26.05;59.11
75172;BME280;63750;52.418;20.742;2023-06-22T01:14:35;100677.33;;;26.07;59.04
75172;BME280;63750;52.418;20.742;2023-06-22T01:17:06;100675.13;;;26.08;59.02
75172;BME280;63750;52.418;20.742;2023-06-22T01:19:43;100675.25;;;26.09;58.93
75172;BME280;63750;52.418;20.742;2023-06-22T01:22:14;100673.65;;;26.10;58.92
75172;BME280;63750;52.418;20.742;2023-06-22T01:24:54;100674.83;;;26.12;58.85
75172;BME280;63750;52.418;20.742;2023-06-22T01:27:36;100677.48;;;26.13;58.77
75172;BME280;63750;52.418;20.742;2023-06-22T01:30:09;100684.95;;;26.15;58.64
75172;BME280;63750;52.418;20.742;2023-06-22T01:32:39;100681.25;;;26.16;58.50
75172;BME280;63750;52.418;20.742;2023-06-22T01:35:10;100681.23;;;26.17;58.52
75172;BME280;63750;52.418;20.742;2023-06-22T01:37:39;100684.37;;;26.18;58.50
75172;BME280;63750;52.418;20.742;2023-06-22T01:40:09;100692.88;;;26.18;58.38
75172;BME280;63750;52.418;20.742;2023-06-22T01:42:38;100691.41;;;26.17;58.36
75172;BME280;63750;52.418;20.742;2023-06-22T01:45:08;100697.80;;;26.17;58.35
75172;BME280;63750;52.418;20.742;2023-06-22T01:47:38;100701.02;;;26.14;58.46
75172;BME280;63750;52.418;20.742;2023-06-22T01:50:08;100706.01;;;26.13;58.41
75172;BME280;63750;52.418;20.742;2023-06-22T01:52:37;100707.23;;;26.11;58.50
75172;BME280;63750;52.418;20.742;2023-06-22T01:55:06;100707.78;;;26.11;58.49
75172;BME280;63750;52.418;20.742;2023-06-22T01:57:34;100711.05;;;26.08;58.49
75172;BME280;63750;52.418;20.742;2023-06-22T02:00:05;100713.25;;;26.03;58.58
75172;BME280;63750;52.418;20.742;2023-06-22T02:02:38;100716.73;;;25.98;58.59
75172;BME280;63750;52.418;20.742;2023-06-22T02:05:11;100718.70;;;25.96;58.82
75172;BME280;63750;52.418;20.742;2023-06-22T02:07:44;100715.80;;;25.95;58.82
75172;BME280;63750;52.418;20.742;2023-06-22T02:10:15;100717.29;;;25.91;58.80
75172;BME280;63750;52.418;20.742;2023-06-22T02:12:46;100717.89;;;25.84;58.91
75172;BME280;63750;52.418;20.742;2023-06-22T02:15:16;100721.80;;;25.72;59.01
75172;BME280;63750;52.418;20.742;2023-06-22T02:17:45;100732.82;;;25.56;59.33
75172;BME280;63750;52.418;20.742;2023-06-22T02:20:15;100743.00;;;25.47;60.06
75172;BME280;63750;52.418;20.742;2023-06-22T02:22:43;100747.42;;;25.45;60.06
75172;BME280;63750;52.418;20.742;2023-06-22T02:25:12;100749.20;;;25.35;60.40
75172;BME280;63750;52.418;20.742;2023-06-22T02:27:40;100746.96;;;25.33;60.37
75172;BME280;63750;52.418;20.742;2023-06-22T02:30:10;100753.00;;;25.30;60.61
75172;BME280;63750;52.418;20.742;2023-06-22T02:32:38;100758.48;;;25.31;60.85
75172;BME280;63750;52.418;20.742;2023-06-22T02:35:07;100760.16;;;25.35;60.63
75172;BME280;63750;52.418;20.742;2023-06-22T02:37:36;100763.02;;;25.40;60.56
75172;BME280;63750;52.418;20.742;2023-06-22T02:40:06;100767.21;;;25.45;60.54
75172;BME280;63750;52.418;20.742;2023-06-22T02:42:35;100775.23;;;25.47;60.54
75172;BME280;63750;52.418;20.742;2023-06-22T02:45:03;100778.00;;;25.47;60.60
75172;BME280;63750;52.418;20.742;2023-06-22T02:47:32;100777.11;;;25.49;60.62
75172;BME280;63750;52.418;20.742;2023-06-22T02:50:00;100774.77;;;25.49;60.67
75172;BME280;63750;52.418;20.742;2023-06-22T02:52:28;100776.15;;;25.52;60.66
75172;BME280;63750;52.418;20.742;2023-06-22T02:54:56;100774.84;;;25.53;60.60
75172;BME280;63750;52.418;20.742;2023-06-22T02:57:25;100779.24;;;25.45;60.76
75172;BME280;63750;52.418;20.742;2023-06-22T02:59:53;100783.26;;;25.44;60.79
75172;BME280;63750;52.418;20.742;2023-06-22T03:02:21;100777.08;;;25.48;60.93
75172;BME280;63750;52.418;20.742;2023-06-22T03:04:49;100777.90;;;25.50;60.89
75172;BME280;63750;52.418;20.742;2023-06-22T03:07:17;100784.51;;;25.53;60.81
75172;BME280;63750;52.418;20.742;2023-06-22T03:09:45;100788.65;;;25.57;60.75
75172;BME280;63750;52.418;20.742;2023-06-22T03:12:14;100791.29;;;25.57;60.74
75172;BME280;63750;52.418;20.742;2023-06-22T03:14:42;100787.20;;;25.60;60.71
75172;BME280;63750;52.418;20.742;2023-06-22T03:17:11;100783.91;;;25.62;60.67
75172;BME280;63750;52.418;20.742;2023-06-22T03:19:39;100787.32;;;25.65;60.66
75172;BME280;63750;52.418;20.742;2023-06-22T03:22:07;100792.39;;;25.68;60.60
75172;BME280;63750;52.418;20.742;2023-06-22T03:24:35;100794.95;;;25.70;60.50
75172;BME280;63750;52.418;20.742;2023-06-22T03:27:04;100795.08;;;25.70;60.51
75172;BME280;63750;52.418;20.742;2023-06-22T03:29:32;100795.85;;;25.72;60.46
75172;BME280;63750;52.418;20.742;2023-06-22T03:32:00;100797.72;;;25.74;60.30
75172;BME280;63750;52.418;20.742;2023-06-22T03:34:28;100801.98;;;25.75;60.33
75172;BME280;63750;52.418;20.742;2023-06-22T03:36:56;100802.30;;;25.78;60.33
75172;BME280;63750;52.418;20.742;2023-06-22T03:39:25;100806.13;;;25.80;60.31
75172;BME280;63750;52.418;20.742;2023-06-22T03:41:53;100802.10;;;25.83;60.22
75172;BME280;63750;52.418;20.742;2023-06-22T03:44:21;100802.48;;;25.86;60.26
75172;BME280;63750;52.418;20.742;2023-06-22T03:46:49;100805.14;;;25.88;60.19
75172;BME280;63750;52.418;20.742;2023-06-22T03:49:17;100810.20;;;25.90;60.04
75172;BME280;63750;52.418;20.742;2023-06-22T03:51:45;100811.48;;;25.92;59.94
75172;BME280;63750;52.418;20.742;2023-06-22T03:54:14;100818.54;;;25.89;60.05
75172;BME280;63750;52.418;20.742;2023-06-22T03:56:42;100819.48;;;25.92;59.96
75172;BME280;63750;52.418;20.742;2023-06-22T03:59:10;100824.72;;;25.92;59.95
75172;BME280;63750;52.418;20.742;2023-06-22T04:01:38;100829.82;;;25.89;60.01
75172;BME280;63750;52.418;20.742;2023-06-22T04:04:06;100836.19;;;25.93;60.00
75172;BME280;63750;52.418;20.742;2023-06-22T04:06:34;100840.05;;;25.96;59.93
75172;BME280;63750;52.418;20.742;2023-06-22T04:09:03;100837.92;;;25.95;59.88
75172;BME280;63750;52.418;20.742;2023-06-22T04:11:31;100841.83;;;25.95;59.78
75172;BME280;63750;52.418;20.742;2023-06-22T04:13:59;100841.93;;;25.92;59.90
75172;BME280;63750;52.418;20.742;2023-06-22T04:16:27;100845.88;;;25.87;59.90
75172;BME280;63750;52.418;20.742;2023-06-22T04:18:55;100844.91;;;25.88;60.04
75172;BME280;63750;52.418;20.742;2023-06-22T04:21:23;100851.02;;;25.93;59.98
75172;BME280;63750;52.418;20.742;2023-06-22T04:23:51;100856.87;;;25.97;59.95
75172;BME280;63750;52.418;20.742;2023-06-22T04:26:20;100853.44;;;26.05;59.83
75172;BME280;63750;52.418;20.742;2023-06-22T04:28:48;100862.50;;;26.04;59.61
75172;BME280;63750;52.418;20.742;2023-06-22T04:31:16;100860.05;;;26.02;59.73
75172;BME280;63750;52.418;20.742;2023-06-22T04:33:44;100862.58;;;26.00;59.68
75172;BME280;63750;52.418;20.742;2023-06-22T04:36:12;100858.78;;;25.96;59.68
75172;BME280;63750;52.418;20.742;2023-06-22T04:38:41;100862.43;;;25.92;59.67
75172;BME280;63750;52.418;20.742;2023-06-22T04:41:09;100860.98;;;25.93;59.74
75172;BME280;63750;52.418;20.742;2023-06-22T04:43:37;100854.96;;;25.96;59.74
75172;BME280;63750;52.418;20.742;2023-06-22T04:46:05;100850.02;;;26.02;59.67
75172;BME280;63750;52.418;20.742;2023-06-22T04:48:33;100850.66;;;26.07;59.43
75172;BME280;63750;52.418;20.742;2023-06-22T04:51:01;100852.09;;;26.13;59.38
75172;BME280;63750;52.418;20.742;2023-06-22T04:53:30;100851.30;;;26.19;59.21
75172;BME280;63750;52.418;20.742;2023-06-22T04:55:58;100843.83;;;26.24;59.02
75172;BME280;63750;52.418;20.742;2023-06-22T04:58:26;100844.08;;;26.27;58.84
75172;BME280;63750;52.418;20.742;2023-06-22T05:00:54;100843.52;;;26.25;58.62
75172;BME280;63750;52.418;20.742;2023-06-22T05:03:22;100840.00;;;26.28;58.66
75172;BME280;63750;52.418;20.742;2023-06-22T05:05:50;100845.28;;;26.30;58.45
75172;BME280;63750;52.418;20.742;2023-06-22T05:08:19;100849.16;;;26.32;58.32
75172;BME280;63750;52.418;20.742;2023-06-22T05:10:47;100852.48;;;26.27;58.18
75172;BME280;63750;52.418;20.742;2023-06-22T05:13:15;100860.23;;;26.19;58.36
75172;BME280;63750;52.418;20.742;2023-06-22T05:15:43;100857.10;;;26.18;58.70
75172;BME280;63750;52.418;20.742;2023-06-22T05:18:11;100853.32;;;26.23;58.68
75172;BME280;63750;52.418;20.742;2023-06-22T05:20:39;100856.36;;;26.26;58.60
75172;BME280;63750;52.418;20.742;2023-06-22T05:23:07;100860.49;;;26.34;58.48
75172;BME280;63750;52.418;20.742;2023-06-22T05:25:35;100860.58;;;26.39;58.22
75172;BME280;63750;52.418;20.742;2023-06-22T05:28:03;100864.32;;;26.41;58.05
75172;BME280;63750;52.418;20.742;2023-06-22T05:30:31;100867.34;;;26.37;57.72
75172;BME280;63750;52.418;20.742;2023-06-22T05:32:59;100877.51;;;26.36;57.98
75172;BME280;63750;52.418;20.742;2023-06-22T05:35:27;100876.21;;;26.39;57.89
75172;BME280;63750;52.418;20.742;2023-06-22T05:37:56;100876.77;;;26.43;57.76
75172;BME280;63750;52.418;20.742;2023-06-22T05:40:24;100875.71;;;26.48;57.65
75172;BME280;63750;52.418;20.742;2023-06-22T05:42:52;100871.59;;;26.49;57.41
75172;BME280;63750;52.418;20.742;2023-06-22T05:45:20;100873.02;;;26.49;57.37
75172;BME280;63750;52.418;20.742;2023-06-22T05:47:49;100867.33;;;26.52;57.15
75172;BME280;63750;52.418;20.742;2023-06-22T05:50:17;100868.92;;;26.51;57.05
75172;BME280;63750;52.418;20.742;2023-06-22T05:52:45;100874.85;;;26.54;57.20
75172;BME280;63750;52.418;20.742;2023-06-22T05:55:13;100881.01;;;26.60;57.16
75172;BME280;63750;52.418;20.742;2023-06-22T05:57:41;100879.77;;;26.70;56.77
75172;BME280;63750;52.418;20.742;2023-06-22T06:00:11;100880.16;;;26.77;56.50
75172;BME280;63750;52.418;20.742;2023-06-22T06:02:39;100886.81;;;26.86;56.46
75172;BME280;63750;52.418;20.742;2023-06-22T06:05:08;100887.16;;;26.91;56.26
75172;BME280;63750;52.418;20.742;2023-06-22T06:07:36;100887.24;;;26.97;56.21
75172;BME280;63750;52.418;20.742;2023-06-22T06:10:05;100885.64;;;27.00;55.95
75172;BME280;63750;52.418;20.742;2023-06-22T06:12:33;100882.80;;;27.07;55.77
75172;BME280;63750;52.418;20.742;2023-06-22T06:15:01;100887.98;;;27.10;55.47
75172;BME280;63750;52.418;20.742;2023-06-22T06:17:30;100887.48;;;27.14;55.37
75172;BME280;63750;52.418;20.742;2023-06-22T06:20:00;100894.90;;;27.10;55.15
75172;BME280;63750;52.418;20.742;2023-06-22T06:22:28;100896.44;;;27.05;55.03
75172;BME280;63750;52.418;20.742;2023-06-22T06:24:56;100895.58;;;27.03;54.88
75172;BME280;63750;52.418;20.742;2023-06-22T06:27:24;100894.34;;;27.04;54.51
75172;BME280;63750;52.418;20.742;2023-06-22T06:29:52;100890.61;;;27.03;54.30
75172;BME280;63750;52.418;20.742;2023-06-22T06:32:20;100891.80;;;27.07;54.18
75172;BME280;63750;52.418;20.742;2023-06-22T06:34:48;100886.09;;;27.18;54.38
75172;BME280;63750;52.418;20.742;2023-06-22T06:37:17;100886.50;;;27.27;53.79
75172;BME280;63750;52.418;20.742;2023-06-22T06:39:45;100883.20;;;27.30;53.45
75172;BME280;63750;52.418;20.742;2023-06-22T06:42:13;100883.41;;;27.28;53.27
75172;BME280;63750;52.418;20.742;2023-06-22T06:44:41;100880.30;;;27.26;53.00
75172;BME280;63750;52.418;20.742;2023-06-22T06:47:09;100872.02;;;27.31;52.74
75172;BME280;63750;52.418;20.742;2023-06-22T06:49:37;100876.33;;;27.37;52.57
75172;BME280;63750;52.418;20.742;2023-06-22T06:52:07;100883.09;;;27.46;52.47
75172;BME280;63750;52.418;20.742;2023-06-22T06:54:35;100886.44;;;27.57;52.34
75172;BME280;63750;52.418;20.742;2023-06-22T06:57:04;100885.45;;;27.68;52.30
75172;BME280;63750;52.418;20.742;2023-06-22T06:59:32;100890.55;;;27.72;51.55
75172;BME280;63750;52.418;20.742;2023-06-22T07:02:00;100889.58;;;27.62;50.98
75172;BME280;63750;52.418;20.742;2023-06-22T07:04:28;100891.53;;;27.57;50.97
75172;BME280;63750;52.418;20.742;2023-06-22T07:06:56;100894.48;;;27.59;50.71
75172;BME280;63750;52.418;20.742;2023-06-22T07:09:24;100893.31;;;27.61;50.98
75172;BME280;63750;52.418;20.742;2023-06-22T07:11:53;100903.13;;;27.66;51.09
75172;BME280;63750;52.418;20.742;2023-06-22T07:14:21;100906.71;;;27.68;50.38
75172;BME280;63750;52.418;20.742;2023-06-22T07:16:49;100907.77;;;27.68;50.33
75172;BME280;63750;52.418;20.742;2023-06-22T07:19:17;100903.77;;;27.68;49.89
75172;BME280;63750;52.418;20.742;2023-06-22T07:21:52;100903.07;;;27.64;49.88
75172;BME280;63750;52.418;20.742;2023-06-22T07:24:20;100908.54;;;27.64;50.08
75172;BME280;63750;52.418;20.742;2023-06-22T07:26:48;100909.35;;;27.62;49.41
75172;BME280;63750;52.418;20.742;2023-06-22T07:29:17;100906.96;;;27.65;49.83
75172;BME280;63750;52.418;20.742;2023-06-22T07:31:46;100908.27;;;27.76;49.81
75172;BME280;63750;52.418;20.742;2023-06-22T07:34:14;100914.83;;;27.85;49.36
75172;BME280;63750;52.418;20.742;2023-06-22T07:36:42;100915.02;;;27.89;48.76
75172;BME280;63750;52.418;20.742;2023-06-22T07:39:10;100922.17;;;27.94;48.43
75172;BME280;63750;52.418;20.742;2023-06-22T07:41:40;100922.06;;;27.98;48.34
75172;BME280;63750;52.418;20.742;2023-06-22T07:44:08;100918.52;;;28.01;47.84
75172;BME280;63750;52.418;20.742;2023-06-22T07:46:36;100915.34;;;27.98;47.64
75172;BME280;63750;52.418;20.742;2023-06-22T07:49:04;100919.88;;;28.00;47.33
75172;BME280;63750;52.418;20.742;2023-06-22T07:51:32;100922.32;;;27.98;46.44
75172;BME280;63750;52.418;20.742;2023-06-22T07:54:00;100917.60;;;28.01;46.71
75172;BME280;63750;52.418;20.742;2023-06-22T07:56:29;100914.10;;;28.06;46.06
75172;BME280;63750;52.418;20.742;2023-06-22T07:58:57;100914.31;;;28.15;46.32
75172;BME280;63750;52.418;20.742;2023-06-22T08:01:25;100908.52;;;28.22;46.04
75172;BME280;63750;52.418;20.742;2023-06-22T08:03:53;100908.64;;;28.25;45.59
75172;BME280;63750;52.418;20.742;2023-06-22T08:06:21;100910.66;;;28.29;45.29
75172;BME280;63750;52.418;20.742;2023-06-22T08:08:49;100908.35;;;28.24;44.90
75172;BME280;63750;52.418;20.742;2023-06-22T08:11:17;100902.41;;;28.29;44.86
75172;BME280;63750;52.418;20.742;2023-06-22T08:13:45;100900.86;;;28.37;44.25
75172;BME280;63750;52.418;20.742;2023-06-22T08:16:13;100897.59;;;28.45;44.45
75172;BME280;63750;52.418;20.742;2023-06-22T08:18:41;100904.42;;;28.58;44.70
75172;BME280;63750;52.418;20.742;2023-06-22T08:21:09;100905.27;;;28.65;44.11
75172;BME280;63750;52.418;20.742;2023-06-22T08:23:37;100908.30;;;28.74;44.28
75172;BME280;63750;52.418;20.742;2023-06-22T08:26:06;100905.29;;;28.79;43.61
75172;BME280;63750;52.418;20.742;2023-06-22T08:28:34;100912.80;;;28.87;43.69
75172;BME280;63750;52.418;20.742;2023-06-22T08:31:03;100917.50;;;28.89;43.40
75172;BME280;63750;52.418;20.742;2023-06-22T08:33:31;100917.02;;;28.93;43.86
75172;BME280;63750;52.418;20.742;2023-06-22T08:36:00;100914.19;;;29.00;43.58
75172;BME280;63750;52.418;20.742;2023-06-22T08:38:28;100916.08;;;29.07;42.98
75172;BME280;63750;52.418;20.742;2023-06-22T08:40:56;100919.63;;;29.06;42.50
75172;BME280;63750;52.418;20.742;2023-06-22T08:43:24;100926.95;;;28.97;42.46
75172;BME280;63750;52.418;20.742;2023-06-22T08:45:52;100931.80;;;28.90;42.28
75172;BME280;63750;52.418;20.742;2023-06-22T08:48:20;100940.46;;;28.91;42.19
75172;BME280;63750;52.418;20.742;2023-06-22T08:50:48;100937.82;;;28.93;42.69
75172;BME280;63750;52.418;20.742;2023-06-22T08:53:16;100936.39;;;28.90;42.19
75172;BME280;63750;52.418;20.742;2023-06-22T08:55:44;100938.14;;;28.88;42.39
75172;BME280;63750;52.418;20.742;2023-06-22T08:58:12;100937.00;;;29.00;42.57
75172;BME280;63750;52.418;20.742;2023-06-22T09:00:41;100926.15;;;29.07;42.54
75172;BME280;63750;52.418;20.742;2023-06-22T09:03:09;100922.98;;;29.16;42.19
75172;BME280;63750;52.418;20.742;2023-06-22T09:05:38;100921.33;;;29.17;41.91
75172;BME280;63750;52.418;20.742;2023-06-22T09:08:06;100920.64;;;29.18;42.19
75172;BME280;63750;52.418;20.742;2023-06-22T09:10:34;100914.41;;;29.28;42.13
75172;BME280;63750;52.418;20.742;2023-06-22T09:13:03;100917.27;;;29.26;41.90
75172;BME280;63750;52.418;20.742;2023-06-22T09:15:31;100917.27;;;29.28;42.15
75172;BME280;63750;52.418;20.742;2023-06-22T09:17:59;100920.23;;;29.35;41.99
75172;BME280;63750;52.418;20.742;2023-06-22T09:20:28;100920.51;;;29.55;42.65
75172;BME280;63750;52.418;20.742;2023-06-22T09:22:56;100926.46;;;29.78;42.62
75172;BME280;63750;52.418;20.742;2023-06-22T09:25:24;100922.27;;;29.92;42.41
75172;BME280;63750;52.418;20.742;2023-06-22T09:27:53;100919.78;;;29.99;42.25
75172;BME280;63750;52.418;20.742;2023-06-22T09:30:21;100917.02;;;30.05;41.96
75172;BME280;63750;52.418;20.742;2023-06-22T09:32:49;100918.23;;;30.08;41.92
75172;BME280;63750;52.418;20.742;2023-06-22T09:35:18;100921.19;;;30.20;42.00
75172;BME280;63750;52.418;20.742;2023-06-22T09:37:46;100913.12;;;30.29;41.27
75172;BME280;63750;52.418;20.742;2023-06-22T09:40:14;100914.19;;;30.34;40.81
75172;BME280;63750;52.418;20.742;2023-06-22T09:42:43;100921.02;;;30.45;41.16
75172;BME280;63750;52.418;20.742;2023-06-22T09:45:12;100917.96;;;30.54;40.71
75172;BME280;63750;52.418;20.742;2023-06-22T09:47:40;100916.39;;;30.67;40.94
75172;BME280;63750;52.418;20.742;2023-06-22T09:50:13;100917.34;;;30.78;40.60
75172;BME280;63750;52.418;20.742;2023-06-22T09:52:41;100919.79;;;30.85;40.14
75172;BME280;63750;52.418;20.742;2023-06-22T09:55:09;100916.11;;;30.77;39.49
75172;BME280;63750;52.418;20.742;2023-06-22T09:57:38;100913.27;;;30.83;40.20
75172;BME280;63750;52.418;20.742;2023-06-22T10:00:08;100911.05;;;30.91;39.91
75172;BME280;63750;52.418;20.742;2023-06-22T10:02:36;100911.34;;;30.87;39.08
75172;BME280;63750;52.418;20.742;2023-06-22T10:05:06;100914.63;;;30.88;39.08
75172;BME280;63750;52.418;20.742;2023-06-22T10:07:35;100909.93;;;30.94;39.49
75172;BME280;63750;52.418;20.742;2023-06-22T10:10:03;100911.50;;;31.11;39.49
75172;BME280;63750;52.418;20.742;2023-06-22T10:12:31;100911.32;;;31.25;39.55
75172;BME280;63750;52.418;20.742;2023-06-22T10:14:59;100913.09;;;31.26;38.90
75172;BME280;63750;52.418;20.742;2023-06-22T10:17:27;100915.11;;;31.32;39.05
75172;BME280;63750;52.418;20.742;2023-06-22T10:19:55;100912.62;;;31.48;38.95
75172;BME280;63750;52.418;20.742;2023-06-22T10:22:24;100911.69;;;31.67;38.79
75172;BME280;63750;52.418;20.742;2023-06-22T10:24:52;100911.64;;;31.81;38.23
75172;BME280;63750;52.418;20.742;2023-06-22T10:27:20;100908.85;;;31.92;38.25
75172;BME280;63750;52.418;20.742;2023-06-22T10:29:49;100907.80;;;31.98;37.65
75172;BME280;63750;52.418;20.742;2023-06-22T10:32:17;100900.33;;;32.01;37.90
75172;BME280;63750;52.418;20.742;2023-06-22T10:34:45;100906.56;;;32.07;37.33
75172;BME280;63750;52.418;20.742;2023-06-22T10:37:13;100901.18;;;32.08;36.66
75172;BME280;63750;52.418;20.742;2023-06-22T10:39:41;100900.10;;;32.12;36.48
75172;BME280;63750;52.418;20.742;2023-06-22T10:42:09;100903.17;;;32.23;36.63
75172;BME280;63750;52.418;20.742;2023-06-22T10:44:38;100905.33;;;32.26;36.76
75172;BME280;63750;52.418;20.742;2023-06-22T10:47:07;100899.69;;;32.31;36.03
75172;BME280;63750;52.418;20.742;2023-06-22T10:49:35;100902.55;;;32.46;36.41
75172;BME280;63750;52.418;20.742;2023-06-22T10:52:04;100903.86;;;32.55;35.78
75172;BME280;63750;52.418;20.742;2023-06-22T10:54:34;100902.81;;;32.55;36.05
75172;BME280;63750;52.418;20.742;2023-06-22T10:57:02;100897.79;;;32.53;35.91
75172;BME280;63750;52.418;20.742;2023-06-22T10:59:30;100892.04;;;32.56;35.81
75172;BME280;63750;52.418;20.742;2023-06-22T11:01:59;100893.42;;;32.61;36.17
75172;BME280;63750;52.418;20.742;2023-06-22T11:04:27;100895.10;;;32.64;35.32
75172;BME280;63750;52.418;20.742;2023-06-22T11:06:55;100890.14;;;32.64;35.20
75172;BME280;63750;52.418;20.742;2023-06-22T11:09:23;100888.36;;;32.67;35.19
75172;BME280;63750;52.418;20.742;2023-06-22T11:11:52;100891.55;;;32.73;34.69
75172;BME280;63750;52.418;20.742;2023-06-22T11:14:20;100888.09;;;32.74;34.65
75172;BME280;63750;52.418;20.742;2023-06-22T11:16:49;100887.29;;;32.77;34.54
75172;BME280;63750;52.418;20.742;2023-06-22T11:19:17;100884.48;;;32.78;34.57
75172;BME280;63750;52.418;20.742;2023-06-22T11:21:45;100885.75;;;32.70;34.28
75172;BME280;63750;52.418;20.742;2023-06-22T11:24:13;100882.55;;;32.70;34.37
75172;BME280;63750;52.418;20.742;2023-06-22T11:26:41;100887.05;;;32.70;33.77
75172;BME280;63750;52.418;20.742;2023-06-22T11:29:09;100884.52;;;32.74;33.49
75172;BME280;63750;52.418;20.742;2023-06-22T11:31:37;100882.31;;;32.64;33.58
75172;BME280;63750;52.418;20.742;2023-06-22T11:34:05;100885.34;;;32.61;33.88
75172;BME280;63750;52.418;20.742;2023-06-22T11:36:34;100889.03;;;32.68;34.00
75172;BME280;63750;52.418;20.742;2023-06-22T11:39:02;100894.89;;;32.72;33.34
75172;BME280;63750;52.418;20.742;2023-06-22T11:41:30;100896.15;;;32.72;32.90
75172;BME280;63750;52.418;20.742;2023-06-22T11:43:58;100893.77;;;32.77;32.92
75172;BME280;63750;52.418;20.742;2023-06-22T11:46:26;100887.36;;;32.92;33.27
75172;BME280;63750;52.418;20.742;2023-06-22T11:48:54;100884.63;;;33.01;32.48
75172;BME280;63750;52.418;20.742;2023-06-22T11:51:22;100890.04;;;33.14;32.64
75172;BME280;63750;52.418;20.742;2023-06-22T11:53:50;100889.77;;;33.22;31.89
75172;BME280;63750;52.418;20.742;2023-06-22T11:56:18;100881.52;;;33.24;32.00
75172;BME280;63750;52.418;20.742;2023-06-22T11:58:46;100885.23;;;33.28;32.24
75172;BME280;63750;52.418;20.742;2023-06-22T12:01:15;100882.86;;;33.40;32.09
75172;BME280;63750;52.418;20.742;2023-06-22T12:03:43;100881.80;;;33.47;31.21
75172;BME280;63750;52.418;20.742;2023-06-22T12:06:11;100870.72;;;33.56;31.59
75172;BME280;63750;52.418;20.742;2023-06-22T12:08:40;100866.80;;;33.59;31.85
75172;BME280;63750;52.418;20.742;2023-06-22T12:11:08;100866.52;;;33.68;32.04
75172;BME280;63750;52.418;20.742;2023-06-22T12:13:36;100866.80;;;33.78;32.22
75172;BME280;63750;52.418;20.742;2023-06-22T12:16:04;100865.70;;;33.79;31.65
75172;BME280;63750;52.418;20.742;2023-06-22T12:18:33;100863.23;;;33.92;32.23
75172;BME280;63750;52.418;20.742;2023-06-22T12:21:01;100863.75;;;34.02;31.84
75172;BME280;63750;52.418;20.742;2023-06-22T12:23:30;100862.85;;;34.11;31.61
75172;BME280;63750;52.418;20.742;2023-06-22T12:25:58;100857.05;;;34.27;31.76
75172;BME280;63750;52.418;20.742;2023-06-22T12:28:26;100854.87;;;34.40;31.90
75172;BME280;63750;52.418;20.742;2023-06-22T12:30:54;100857.30;;;34.48;31.45
75172;BME280;63750;52.418;20.742;2023-06-22T12:33:22;100860.63;;;34.45;31.34
75172;BME280;63750;52.418;20.742;2023-06-22T12:35:50;100861.23;;;34.45;31.06
75172;BME280;63750;52.418;20.742;2023-06-22T12:38:18;100854.38;;;34.48;31.18
75172;BME280;63750;52.418;20.742;2023-06-22T12:40:46;100856.38;;;34.57;31.26
75172;BME280;63750;52.418;20.742;2023-06-22T12:43:14;100857.10;;;34.56;30.85
75172;BME280;63750;52.418;20.742;2023-06-22T12:45:43;100865.63;;;34.52;31.18